sensor_id;sensor_type;location;lat;lon;timestamp;P1;durP1;ratioP1;P2;durP2;ratioP2
13712;SDS011;6928;50.546;7.120;2022-08-04T00:00:29;4.00;;;1.35;;
13712;SDS011;6928;50.546;7.120;2022-08-04T00:03:01;1.80;;;1.08;;
13712;SDS011;6928;50.546;7.120;2022-08-04T00:05:47;3.90;;;1.23;;
13712;SDS011;6928;50.546;7.120;2022-08-04T00:08:28;1.20;;;1.10;;
13712;SDS011;6928;50.546;7.120;2022-08-04T00:11:07;4.63;;;1.23;;
13712;SDS011;6928;50.546;7.120;2022-08-04T00:13:39;2.55;;;1.20;;
13712;SDS011;6928;50.546;7.120;2022-08-04T00:16:10;1.17;;;1.10;;
13712;SDS011;6928;50.546;7.120;2022-08-04T00:18:39;3.75;;;1.38;;
13712;SDS011;6928;50.546;7.120;2022-08-04T00:21:12;1.67;;;1.00;;
13712;SDS011;6928;50.546;7.120;2022-08-04T00:23:42;1.00;;;1.00;;
13712;SDS011;6928;50.546;7.120;2022-08-04T00:26:10;5.20;;;1.25;;
13712;SDS011;6928;50.546;7.120;2022-08-04T00:28:39;1.95;;;1.08;;
13712;SDS011;6928;50.546;7.120;2022-08-04T00:31:07;1.17;;;1.17;;
13712;SDS011;6928;50.546;7.120;2022-08-04T00:33:36;2.22;;;1.40;;
13712;SDS011;6928;50.546;7.120;2022-08-04T00:36:03;1.40;;;1.20;;
13712;SDS011;6928;50.546;7.120;2022-08-04T00:38:32;1.45;;;1.30;;
13712;SDS011;6928;50.546;7.120;2022-08-04T00:41:02;1.98;;;1.25;;
13712;SDS011;6928;50.546;7.120;2022-08-04T00:43:42;1.27;;;1.10;;
13712;SDS011;6928;50.546;7.120;2022-08-04T00:46:34;2.75;;;1.58;;
13712;SDS011;6928;50.546;7.120;2022-08-04T00:52:36;1.60;;;1.15;;
13712;SDS011;6928;50.546;7.120;2022-08-04T00:55:31;3.78;;;1.27;;
13712;SDS011;6928;50.546;7.120;2022-08-04T00:58:22;1.73;;;1.27;;
13712;SDS011;6928;50.546;7.120;2022-08-04T01:00:57;3.75;;;1.38;;
13712;SDS011;6928;50.546;7.120;2022-08-04T01:03:32;1.08;;;1.08;;
13712;SDS011;6928;50.546;7.120;2022-08-04T01:06:17;1.50;;;1.40;;
13712;SDS011;6928;50.546;7.120;2022-08-04T01:09:15;4.15;;;1.35;;
13712;SDS011;6928;50.546;7.120;2022-08-04T01:12:01;3.13;;;1.33;;
13712;SDS011;6928;50.546;7.120;2022-08-04T01:15:02;1.20;;;1.10;;
13712;SDS011;6928;50.546;7.120;2022-08-04T01:17:42;2.15;;;1.23;;
13712;SDS011;6928;50.546;7.120;2022-08-04T01:20:25;1.30;;;1.05;;
13712;SDS011;6928;50.546;7.120;2022-08-04T01:29:10;2.08;;;1.00;;
13712;SDS011;6928;50.546;7.120;2022-08-04T01:31:51;2.00;;;1.60;;
13712;SDS011;6928;50.546;7.120;2022-08-04T01:34:34;1.38;;;1.27;;
13712;SDS011;6928;50.546;7.120;2022-08-04T01:37:10;1.40;;;1.30;;
13712;SDS011;6928;50.546;7.120;2022-08-04T01:39:48;1.40;;;1.30;;
13712;SDS011;6928;50.546;7.120;2022-08-04T01:42:19;1.90;;;1.30;;
13712;SDS011;6928;50.546;7.120;2022-08-04T01:44:49;4.25;;;1.63;;
13712;SDS011;6928;50.546;7.120;2022-08-04T01:47:19;3.65;;;1.25;;
13712;SDS011;6928;50.546;7.120;2022-08-04T01:49:48;1.20;;;1.10;;
13712;SDS011;6928;50.546;7.120;2022-08-04T01:52:17;3.97;;;1.23;;
13712;SDS011;6928;50.546;7.120;2022-08-04T01:54:45;1.83;;;1.35;;
13712;SDS011;6928;50.546;7.120;2022-08-04T01:57:12;1.40;;;1.20;;
13712;SDS011;6928;50.546;7.120;2022-08-04T01:59:44;1.42;;;1.33;;
13712;SDS011;6928;50.546;7.120;2022-08-04T02:02:14;1.27;;;1.17;;
13712;SDS011;6928;50.546;7.120;2022-08-04T02:04:41;1.83;;;1.38;;
13712;SDS011;6928;50.546;7.120;2022-08-04T02:10:09;1.02;;;1.02;;
13712;SDS011;6928;50.546;7.120;2022-08-04T02:13:06;1.40;;;1.33;;
13712;SDS011;6928;50.546;7.120;2022-08-04T02:15:47;1.60;;;1.50;;
13712;SDS011;6928;50.546;7.120;2022-08-04T02:18:26;1.17;;;1.10;;
13712;SDS011;6928;50.546;7.120;2022-08-04T02:20:58;1.77;;;1.40;;
13712;SDS011;6928;50.546;7.120;2022-08-04T02:23:28;4.50;;;0.90;;
13712;SDS011;6928;50.546;7.120;2022-08-04T02:26:00;1.75;;;1.30;;
13712;SDS011;6928;50.546;7.120;2022-08-04T02:28:32;1.35;;;1.15;;
13712;SDS011;6928;50.546;7.120;2022-08-04T02:31:06;2.20;;;1.45;;
13712;SDS011;6928;50.546;7.120;2022-08-04T02:33:42;1.25;;;1.15;;
13712;SDS011;6928;50.546;7.120;2022-08-04T02:36:13;1.60;;;1.50;;
13712;SDS011;6928;50.546;7.120;2022-08-04T02:38:55;1.30;;;1.20;;
13712;SDS011;6928;50.546;7.120;2022-08-04T02:41:26;2.25;;;1.40;;
13712;SDS011;6928;50.546;7.120;2022-08-04T02:43:55;1.70;;;1.38;;
13712;SDS011;6928;50.546;7.120;2022-08-04T02:46:26;2.53;;;1.20;;
13712;SDS011;6928;50.546;7.120;2022-08-04T02:48:55;1.67;;;1.40;;
13712;SDS011;6928;50.546;7.120;2022-08-04T02:51:23;2.28;;;1.60;;
13712;SDS011;6928;50.546;7.120;2022-08-04T02:53:54;1.10;;;1.10;;
13712;SDS011;6928;50.546;7.120;2022-08-04T02:56:26;3.17;;;1.63;;
13712;SDS011;6928;50.546;7.120;2022-08-04T02:58:57;1.58;;;1.48;;
13712;SDS011;6928;50.546;7.120;2022-08-04T03:01:27;2.40;;;1.33;;
13712;SDS011;6928;50.546;7.120;2022-08-04T03:07:10;1.33;;;1.23;;
13712;SDS011;6928;50.546;7.120;2022-08-04T03:10:17;3.17;;;1.02;;
13712;SDS011;6928;50.546;7.120;2022-08-04T03:13:35;2.22;;;1.50;;
13712;SDS011;6928;50.546;7.120;2022-08-04T03:23:13;1.35;;;1.25;;
13712;SDS011;6928;50.546;7.120;2022-08-04T03:32:36;4.35;;;1.33;;
13712;SDS011;6928;50.546;7.120;2022-08-04T03:35:56;1.48;;;1.38;;
13712;SDS011;6928;50.546;7.120;2022-08-04T03:39:31;2.95;;;1.63;;
13712;SDS011;6928;50.546;7.120;2022-08-04T03:42:38;1.77;;;1.40;;
13712;SDS011;6928;50.546;7.120;2022-08-04T03:49:31;1.15;;;1.10;;
13712;SDS011;6928;50.546;7.120;2022-08-04T03:52:42;1.25;;;1.15;;
13712;SDS011;6928;50.546;7.120;2022-08-04T03:55:45;1.38;;;1.27;;
13712;SDS011;6928;50.546;7.120;2022-08-04T04:02:08;1.48;;;1.30;;
13712;SDS011;6928;50.546;7.120;2022-08-04T04:08:32;1.45;;;1.35;;
13712;SDS011;6928;50.546;7.120;2022-08-04T04:11:31;3.28;;;1.40;;
13712;SDS011;6928;50.546;7.120;2022-08-04T04:14:17;1.45;;;1.13;;
13712;SDS011;6928;50.546;7.120;2022-08-04T04:17:03;2.28;;;1.50;;
13712;SDS011;6928;50.546;7.120;2022-08-04T04:19:51;3.70;;;1.60;;
13712;SDS011;6928;50.546;7.120;2022-08-04T04:22:34;1.70;;;1.58;;
13712;SDS011;6928;50.546;7.120;2022-08-04T04:25:24;8.38;;;1.50;;
13712;SDS011;6928;50.546;7.120;2022-08-04T04:28:21;4.15;;;1.63;;
13712;SDS011;6928;50.546;7.120;2022-08-04T04:31:20;2.47;;;1.42;;
13712;SDS011;6928;50.546;7.120;2022-08-04T04:34:15;2.28;;;1.73;;
13712;SDS011;6928;50.546;7.120;2022-08-04T04:36:58;3.83;;;1.60;;
13712;SDS011;6928;50.546;7.120;2022-08-04T04:39:58;5.07;;;1.40;;
13712;SDS011;6928;50.546;7.120;2022-08-04T04:42:53;1.55;;;1.45;;
13712;SDS011;6928;50.546;7.120;2022-08-04T04:45:49;2.30;;;1.23;;
13712;SDS011;6928;50.546;7.120;2022-08-04T04:48:29;2.72;;;1.33;;
13712;SDS011;6928;50.546;7.120;2022-08-04T04:51:07;1.58;;;1.48;;
13712;SDS011;6928;50.546;7.120;2022-08-04T04:53:46;4.28;;;2.05;;
13712;SDS011;6928;50.546;7.120;2022-08-04T04:56:22;1.60;;;1.50;;
13712;SDS011;6928;50.546;7.120;2022-08-04T04:59:00;5.35;;;1.55;;
13712;SDS011;6928;50.546;7.120;2022-08-04T05:05:02;2.17;;;1.55;;
13712;SDS011;6928;50.546;7.120;2022-08-04T05:07:54;1.70;;;1.60;;
13712;SDS011;6928;50.546;7.120;2022-08-04T05:10:47;1.95;;;1.80;;
13712;SDS011;6928;50.546;7.120;2022-08-04T05:13:32;4.28;;;1.65;;
13712;SDS011;6928;50.546;7.120;2022-08-04T05:16:06;3.55;;;1.50;;
13712;SDS011;6928;50.546;7.120;2022-08-04T05:18:41;1.65;;;1.55;;
13712;SDS011;6928;50.546;7.120;2022-08-04T05:21:18;1.92;;;1.80;;
13712;SDS011;6928;50.546;7.120;2022-08-04T05:23:55;1.88;;;1.70;;
13712;SDS011;6928;50.546;7.120;2022-08-04T05:26:29;1.75;;;1.63;;
13712;SDS011;6928;50.546;7.120;2022-08-04T05:29:01;2.65;;;1.77;;
13712;SDS011;6928;50.546;7.120;2022-08-04T05:31:37;2.67;;;1.80;;
13712;SDS011;6928;50.546;7.120;2022-08-04T05:34:10;1.70;;;1.60;;
13712;SDS011;6928;50.546;7.120;2022-08-04T05:36:41;1.90;;;1.58;;
13712;SDS011;6928;50.546;7.120;2022-08-04T05:39:13;2.03;;;1.80;;
13712;SDS011;6928;50.546;7.120;2022-08-04T05:41:45;2.45;;;1.75;;
13712;SDS011;6928;50.546;7.120;2022-08-04T05:44:14;2.55;;;1.70;;
13712;SDS011;6928;50.546;7.120;2022-08-04T05:46:46;2.15;;;1.90;;
13712;SDS011;6928;50.546;7.120;2022-08-04T05:49:16;3.25;;;1.90;;
13712;SDS011;6928;50.546;7.120;2022-08-04T05:51:44;3.08;;;1.70;;
13712;SDS011;6928;50.546;7.120;2022-08-04T05:54:12;3.40;;;1.92;;
13712;SDS011;6928;50.546;7.120;2022-08-04T05:56:40;3.88;;;1.80;;
13712;SDS011;6928;50.546;7.120;2022-08-04T05:59:08;2.20;;;1.70;;
13712;SDS011;6928;50.546;7.120;2022-08-04T06:01:37;2.53;;;1.65;;
13712;SDS011;6928;50.546;7.120;2022-08-04T06:04:06;4.38;;;2.05;;
13712;SDS011;6928;50.546;7.120;2022-08-04T06:06:34;3.25;;;1.52;;
13712;SDS011;6928;50.546;7.120;2022-08-04T06:09:03;3.38;;;1.90;;
13712;SDS011;6928;50.546;7.120;2022-08-04T06:11:30;1.70;;;1.60;;
13712;SDS011;6928;50.546;7.120;2022-08-04T06:13:58;3.72;;;1.65;;
13712;SDS011;6928;50.546;7.120;2022-08-04T06:16:31;2.10;;;1.70;;
13712;SDS011;6928;50.546;7.120;2022-08-04T06:19:04;2.05;;;1.75;;
13712;SDS011;6928;50.546;7.120;2022-08-04T06:21:35;3.33;;;1.77;;
13712;SDS011;6928;50.546;7.120;2022-08-04T06:24:06;2.03;;;1.77;;
13712;SDS011;6928;50.546;7.120;2022-08-04T06:26:38;2.40;;;1.75;;
13712;SDS011;6928;50.546;7.120;2022-08-04T06:29:05;2.88;;;1.60;;
13712;SDS011;6928;50.546;7.120;2022-08-04T06:31:40;2.33;;;1.98;;
13712;SDS011;6928;50.546;7.120;2022-08-04T06:34:13;1.70;;;1.50;;
13712;SDS011;6928;50.546;7.120;2022-08-04T06:36:41;2.35;;;1.70;;
13712;SDS011;6928;50.546;7.120;2022-08-04T06:39:08;4.32;;;1.80;;
13712;SDS011;6928;50.546;7.120;2022-08-04T06:41:36;5.20;;;1.80;;
13712;SDS011;6928;50.546;7.120;2022-08-04T06:44:05;2.00;;;1.73;;
13712;SDS011;6928;50.546;7.120;2022-08-04T06:46:36;3.30;;;2.17;;
13712;SDS011;6928;50.546;7.120;2022-08-04T06:49:06;7.45;;;2.25;;
13712;SDS011;6928;50.546;7.120;2022-08-04T06:51:35;2.60;;;1.80;;
13712;SDS011;6928;50.546;7.120;2022-08-04T06:54:03;2.83;;;1.80;;
13712;SDS011;6928;50.546;7.120;2022-08-04T06:56:31;1.90;;;1.70;;
13712;SDS011;6928;50.546;7.120;2022-08-04T06:59:03;3.28;;;1.90;;
13712;SDS011;6928;50.546;7.120;2022-08-04T07:01:34;6.15;;;2.10;;
13712;SDS011;6928;50.546;7.120;2022-08-04T07:04:02;4.28;;;1.80;;
13712;SDS011;6928;50.546;7.120;2022-08-04T07:06:30;3.20;;;1.90;;
13712;SDS011;6928;50.546;7.120;2022-08-04T07:08:59;7.32;;;2.10;;
13712;SDS011;6928;50.546;7.120;2022-08-04T07:11:27;8.13;;;1.77;;
13712;SDS011;6928;50.546;7.120;2022-08-04T07:13:54;9.85;;;1.90;;
13712;SDS011;6928;50.546;7.120;2022-08-04T07:16:22;2.05;;;1.88;;
13712;SDS011;6928;50.546;7.120;2022-08-04T07:18:50;7.97;;;2.10;;
13712;SDS011;6928;50.546;7.120;2022-08-04T07:21:18;4.07;;;1.80;;
13712;SDS011;6928;50.546;7.120;2022-08-04T07:23:48;3.50;;;1.75;;
13712;SDS011;6928;50.546;7.120;2022-08-04T07:26:16;6.57;;;1.77;;
13712;SDS011;6928;50.546;7.120;2022-08-04T07:28:44;5.88;;;1.70;;
13712;SDS011;6928;50.546;7.120;2022-08-04T07:31:13;4.53;;;1.90;;
13712;SDS011;6928;50.546;7.120;2022-08-04T07:33:44;3.85;;;1.70;;
13712;SDS011;6928;50.546;7.120;2022-08-04T07:36:13;4.00;;;1.50;;
13712;SDS011;6928;50.546;7.120;2022-08-04T07:38:41;3.20;;;1.63;;
13712;SDS011;6928;50.546;7.120;2022-08-04T07:41:08;2.55;;;1.70;;
13712;SDS011;6928;50.546;7.120;2022-08-04T07:43:37;2.45;;;1.60;;
13712;SDS011;6928;50.546;7.120;2022-08-04T07:46:04;6.38;;;1.70;;
13712;SDS011;6928;50.546;7.120;2022-08-04T07:48:31;5.65;;;1.65;;
13712;SDS011;6928;50.546;7.120;2022-08-04T07:50:59;3.72;;;1.52;;
13712;SDS011;6928;50.546;7.120;2022-08-04T07:53:26;1.65;;;1.55;;
13712;SDS011;6928;50.546;7.120;2022-08-04T07:55:54;4.10;;;1.75;;
13712;SDS011;6928;50.546;7.120;2022-08-04T07:58:22;2.70;;;1.85;;
13712;SDS011;6928;50.546;7.120;2022-08-04T08:00:50;2.20;;;1.98;;
13712;SDS011;6928;50.546;7.120;2022-08-04T08:03:17;2.90;;;2.00;;
13712;SDS011;6928;50.546;7.120;2022-08-04T08:05:45;5.80;;;1.67;;
13712;SDS011;6928;50.546;7.120;2022-08-04T08:08:12;2.08;;;1.83;;
13712;SDS011;6928;50.546;7.120;2022-08-04T08:10:44;4.93;;;1.88;;
13712;SDS011;6928;50.546;7.120;2022-08-04T08:13:12;3.45;;;1.80;;
13712;SDS011;6928;50.546;7.120;2022-08-04T08:15:40;5.88;;;2.00;;
13712;SDS011;6928;50.546;7.120;2022-08-04T08:18:11;3.95;;;1.80;;
13712;SDS011;6928;50.546;7.120;2022-08-04T08:20:38;4.07;;;1.70;;
13712;SDS011;6928;50.546;7.120;2022-08-04T08:23:08;3.13;;;1.55;;
13712;SDS011;6928;50.546;7.120;2022-08-04T08:25:35;4.25;;;1.83;;
13712;SDS011;6928;50.546;7.120;2022-08-04T08:28:03;1.85;;;1.70;;
13712;SDS011;6928;50.546;7.120;2022-08-04T08:30:31;5.55;;;2.10;;
13712;SDS011;6928;50.546;7.120;2022-08-04T08:32:59;4.25;;;2.10;;
13712;SDS011;6928;50.546;7.120;2022-08-04T08:35:30;5.07;;;1.83;;
13712;SDS011;6928;50.546;7.120;2022-08-04T08:38:05;5.40;;;1.70;;
13712;SDS011;6928;50.546;7.120;2022-08-04T08:40:34;5.35;;;1.77;;
13712;SDS011;6928;50.546;7.120;2022-08-04T08:46:27;6.47;;;2.10;;
13712;SDS011;6928;50.546;7.120;2022-08-04T08:49:19;5.57;;;1.98;;
13712;SDS011;6928;50.546;7.120;2022-08-04T08:52:25;4.55;;;1.63;;
13712;SDS011;6928;50.546;7.120;2022-08-04T08:55:10;5.03;;;1.80;;
13712;SDS011;6928;50.546;7.120;2022-08-04T08:57:52;4.30;;;1.80;;
13712;SDS011;6928;50.546;7.120;2022-08-04T09:00:39;3.63;;;1.50;;
13712;SDS011;6928;50.546;7.120;2022-08-04T09:03:21;2.05;;;1.85;;
13712;SDS011;6928;50.546;7.120;2022-08-04T09:06:09;5.57;;;1.80;;
13712;SDS011;6928;50.546;7.120;2022-08-04T09:09:05;7.72;;;1.88;;
13712;SDS011;6928;50.546;7.120;2022-08-04T09:12:13;6.03;;;1.80;;
13712;SDS011;6928;50.546;7.120;2022-08-04T09:14:49;1.73;;;1.50;;
13712;SDS011;6928;50.546;7.120;2022-08-04T09:17:26;3.15;;;1.48;;
13712;SDS011;6928;50.546;7.120;2022-08-04T09:19:59;5.57;;;1.58;;
13712;SDS011;6928;50.546;7.120;2022-08-04T09:22:33;6.70;;;1.20;;
13712;SDS011;6928;50.546;7.120;2022-08-04T09:25:10;2.33;;;1.20;;
13712;SDS011;6928;50.546;7.120;2022-08-04T09:27:45;5.22;;;1.23;;
13712;SDS011;6928;50.546;7.120;2022-08-04T09:30:18;8.32;;;1.45;;
13712;SDS011;6928;50.546;7.120;2022-08-04T09:32:55;2.05;;;1.23;;
13712;SDS011;6928;50.546;7.120;2022-08-04T09:35:32;6.18;;;1.67;;
13712;SDS011;6928;50.546;7.120;2022-08-04T09:38:09;0.90;;;0.90;;
13712;SDS011;6928;50.546;7.120;2022-08-04T09:40:47;1.20;;;1.10;;
13712;SDS011;6928;50.546;7.120;2022-08-04T09:43:25;3.03;;;0.82;;
13712;SDS011;6928;50.546;7.120;2022-08-04T09:46:01;1.00;;;0.85;;
13712;SDS011;6928;50.546;7.120;2022-08-04T09:48:36;5.75;;;0.80;;
13712;SDS011;6928;50.546;7.120;2022-08-04T09:51:15;0.60;;;0.60;;
13712;SDS011;6928;50.546;7.120;2022-08-04T09:53:54;0.77;;;0.77;;
13712;SDS011;6928;50.546;7.120;2022-08-04T09:56:31;2.90;;;0.70;;
13712;SDS011;6928;50.546;7.120;2022-08-04T09:59:10;1.25;;;0.80;;
13712;SDS011;6928;50.546;7.120;2022-08-04T10:01:48;2.55;;;0.75;;
13712;SDS011;6928;50.546;7.120;2022-08-04T10:04:19;0.95;;;0.85;;
13712;SDS011;6928;50.546;7.120;2022-08-04T10:09:56;2.20;;;0.70;;
13712;SDS011;6928;50.546;7.120;2022-08-04T10:12:40;0.93;;;0.75;;
13712;SDS011;6928;50.546;7.120;2022-08-04T10:15:26;0.60;;;0.60;;
13712;SDS011;6928;50.546;7.120;2022-08-04T10:18:03;3.15;;;0.70;;
13712;SDS011;6928;50.546;7.120;2022-08-04T10:20:46;1.10;;;0.68;;
13712;SDS011;6928;50.546;7.120;2022-08-04T10:23:26;3.38;;;0.80;;
13712;SDS011;6928;50.546;7.120;2022-08-04T10:26:10;3.53;;;0.73;;
13712;SDS011;6928;50.546;7.120;2022-08-04T10:28:55;2.10;;;0.70;;
13712;SDS011;6928;50.546;7.120;2022-08-04T10:31:29;3.17;;;0.57;;
13712;SDS011;6928;50.546;7.120;2022-08-04T10:34:02;0.93;;;0.73;;
13712;SDS011;6928;50.546;7.120;2022-08-04T10:36:39;0.63;;;0.63;;
13712;SDS011;6928;50.546;7.120;2022-08-04T10:39:17;2.25;;;0.70;;
13712;SDS011;6928;50.546;7.120;2022-08-04T10:41:51;0.50;;;0.50;;
13712;SDS011;6928;50.546;7.120;2022-08-04T10:44:27;2.85;;;0.52;;
13712;SDS011;6928;50.546;7.120;2022-08-04T10:47:07;1.30;;;0.50;;
13712;SDS011;6928;50.546;7.120;2022-08-04T10:49:53;3.70;;;0.65;;
13712;SDS011;6928;50.546;7.120;2022-08-04T10:52:27;2.05;;;0.90;;
13712;SDS011;6928;50.546;7.120;2022-08-04T10:55:02;0.50;;;0.50;;
13712;SDS011;6928;50.546;7.120;2022-08-04T10:57:35;2.25;;;0.60;;
13712;SDS011;6928;50.546;7.120;2022-08-04T11:00:10;0.45;;;0.45;;
13712;SDS011;6928;50.546;7.120;2022-08-04T11:02:44;2.08;;;0.75;;
13712;SDS011;6928;50.546;7.120;2022-08-04T11:05:21;0.60;;;0.60;;
13712;SDS011;6928;50.546;7.120;2022-08-04T11:07:55;1.05;;;1.00;;
13712;SDS011;6928;50.546;7.120;2022-08-04T11:10:28;0.90;;;0.85;;
13712;SDS011;6928;50.546;7.120;2022-08-04T11:13:03;1.35;;;0.77;;
13712;SDS011;6928;50.546;7.120;2022-08-04T11:15:37;2.92;;;0.60;;
13712;SDS011;6928;50.546;7.120;2022-08-04T11:18:08;2.13;;;0.65;;
13712;SDS011;6928;50.546;7.120;2022-08-04T11:20:44;14.05;;;1.90;;
13712;SDS011;6928;50.546;7.120;2022-08-04T11:23:22;1.70;;;0.75;;
13712;SDS011;6928;50.546;7.120;2022-08-04T11:25:56;1.13;;;0.77;;
13712;SDS011;6928;50.546;7.120;2022-08-04T11:28:32;6.18;;;0.80;;
13712;SDS011;6928;50.546;7.120;2022-08-04T11:31:13;1.08;;;0.98;;
13712;SDS011;6928;50.546;7.120;2022-08-04T11:33:49;2.47;;;0.50;;
13712;SDS011;6928;50.546;7.120;2022-08-04T11:36:29;5.15;;;0.68;;
13712;SDS011;6928;50.546;7.120;2022-08-04T11:39:02;0.50;;;0.50;;
13712;SDS011;6928;50.546;7.120;2022-08-04T11:41:39;0.90;;;0.50;;
13712;SDS011;6928;50.546;7.120;2022-08-04T11:44:21;2.72;;;0.73;;
13712;SDS011;6928;50.546;7.120;2022-08-04T11:46:56;0.65;;;0.50;;
13712;SDS011;6928;50.546;7.120;2022-08-04T11:49:32;0.95;;;0.55;;
13712;SDS011;6928;50.546;7.120;2022-08-04T11:52:05;5.88;;;0.68;;
13712;SDS011;6928;50.546;7.120;2022-08-04T11:54:35;2.03;;;0.43;;
13712;SDS011;6928;50.546;7.120;2022-08-04T11:57:04;3.92;;;0.52;;
13712;SDS011;6928;50.546;7.120;2022-08-04T11:59:32;2.33;;;1.63;;
13712;SDS011;6928;50.546;7.120;2022-08-04T12:02:10;4.15;;;0.77;;
13712;SDS011;6928;50.546;7.120;2022-08-04T12:05:07;2.10;;;0.70;;
13712;SDS011;6928;50.546;7.120;2022-08-04T12:07:40;1.13;;;0.70;;
13712;SDS011;6928;50.546;7.120;2022-08-04T12:10:21;5.80;;;0.68;;
13712;SDS011;6928;50.546;7.120;2022-08-04T12:13:04;0.80;;;0.80;;
13712;SDS011;6928;50.546;7.120;2022-08-04T12:15:43;2.58;;;0.55;;
13712;SDS011;6928;50.546;7.120;2022-08-04T12:18:24;1.13;;;0.47;;
13712;SDS011;6928;50.546;7.120;2022-08-04T12:21:01;1.27;;;0.60;;
13712;SDS011;6928;50.546;7.120;2022-08-04T12:23:35;3.30;;;0.60;;
13712;SDS011;6928;50.546;7.120;2022-08-04T12:26:06;1.15;;;0.70;;
13712;SDS011;6928;50.546;7.120;2022-08-04T12:28:36;2.28;;;0.50;;
13712;SDS011;6928;50.546;7.120;2022-08-04T12:31:08;7.18;;;0.85;;
13712;SDS011;6928;50.546;7.120;2022-08-04T12:33:43;6.05;;;0.82;;
13712;SDS011;6928;50.546;7.120;2022-08-04T12:36:23;7.30;;;0.70;;
13712;SDS011;6928;50.546;7.120;2022-08-04T12:39:00;7.90;;;0.85;;
13712;SDS011;6928;50.546;7.120;2022-08-04T12:41:37;1.40;;;0.80;;
13712;SDS011;6928;50.546;7.120;2022-08-04T12:44:11;6.55;;;1.20;;
13712;SDS011;6928;50.546;7.120;2022-08-04T12:46:39;5.03;;;0.90;;
13712;SDS011;6928;50.546;7.120;2022-08-04T12:49:13;5.72;;;1.00;;
13712;SDS011;6928;50.546;7.120;2022-08-04T12:51:42;2.13;;;1.02;;
13712;SDS011;6928;50.546;7.120;2022-08-04T12:54:11;2.47;;;1.00;;
13712;SDS011;6928;50.546;7.120;2022-08-04T12:56:39;2.30;;;0.80;;
13712;SDS011;6928;50.546;7.120;2022-08-04T12:59:07;2.88;;;1.02;;
13712;SDS011;6928;50.546;7.120;2022-08-04T13:01:37;6.80;;;0.88;;
13712;SDS011;6928;50.546;7.120;2022-08-04T13:04:10;7.47;;;0.90;;
13712;SDS011;6928;50.546;7.120;2022-08-04T13:06:43;6.57;;;0.85;;
13712;SDS011;6928;50.546;7.120;2022-08-04T13:09:18;1.80;;;0.73;;
13712;SDS011;6928;50.546;7.120;2022-08-04T13:11:49;4.03;;;0.77;;
13712;SDS011;6928;50.546;7.120;2022-08-04T13:14:22;4.53;;;1.08;;
13712;SDS011;6928;50.546;7.120;2022-08-04T13:16:57;5.13;;;1.10;;
13712;SDS011;6928;50.546;7.120;2022-08-04T13:19:25;7.80;;;1.20;;
13712;SDS011;6928;50.546;7.120;2022-08-04T13:21:54;8.85;;;1.45;;
13712;SDS011;6928;50.546;7.120;2022-08-04T13:24:24;4.32;;;1.10;;
13712;SDS011;6928;50.546;7.120;2022-08-04T13:26:54;5.28;;;1.00;;
13712;SDS011;6928;50.546;7.120;2022-08-04T13:29:25;1.25;;;1.00;;
13712;SDS011;6928;50.546;7.120;2022-08-04T13:31:59;4.93;;;1.17;;
13712;SDS011;6928;50.546;7.120;2022-08-04T13:34:27;3.97;;;1.20;;
13712;SDS011;6928;50.546;7.120;2022-08-04T13:36:57;7.57;;;1.33;;
13712;SDS011;6928;50.546;7.120;2022-08-04T13:39:24;8.73;;;1.00;;
13712;SDS011;6928;50.546;7.120;2022-08-04T13:41:52;12.27;;;2.00;;
13712;SDS011;6928;50.546;7.120;2022-08-04T13:44:24;3.80;;;1.00;;
13712;SDS011;6928;50.546;7.120;2022-08-04T13:46:56;4.57;;;0.85;;
13712;SDS011;6928;50.546;7.120;2022-08-04T13:49:26;4.38;;;0.90;;
13712;SDS011;6928;50.546;7.120;2022-08-04T13:51:54;9.05;;;1.30;;
13712;SDS011;6928;50.546;7.120;2022-08-04T13:54:25;6.18;;;1.10;;
13712;SDS011;6928;50.546;7.120;2022-08-04T13:56:53;1.88;;;0.93;;
13712;SDS011;6928;50.546;7.120;2022-08-04T13:59:24;1.95;;;0.90;;
13712;SDS011;6928;50.546;7.120;2022-08-04T14:01:55;3.75;;;1.42;;
13712;SDS011;6928;50.546;7.120;2022-08-04T14:04:27;4.00;;;1.20;;
13712;SDS011;6928;50.546;7.120;2022-08-04T14:07:02;11.30;;;1.10;;
13712;SDS011;6928;50.546;7.120;2022-08-04T14:09:36;7.75;;;1.30;;
13712;SDS011;6928;50.546;7.120;2022-08-04T14:12:06;4.47;;;1.20;;
13712;SDS011;6928;50.546;7.120;2022-08-04T14:14:35;0.80;;;0.80;;
13712;SDS011;6928;50.546;7.120;2022-08-04T14:17:12;7.60;;;0.98;;
13712;SDS011;6928;50.546;7.120;2022-08-04T14:19:48;5.53;;;1.20;;
13712;SDS011;6928;50.546;7.120;2022-08-04T14:22:35;1.50;;;0.73;;
13712;SDS011;6928;50.546;7.120;2022-08-04T14:25:04;3.30;;;1.10;;
13712;SDS011;6928;50.546;7.120;2022-08-04T14:27:46;0.98;;;0.90;;
13712;SDS011;6928;50.546;7.120;2022-08-04T14:30:24;7.82;;;1.20;;
13712;SDS011;6928;50.546;7.120;2022-08-04T14:32:54;6.63;;;1.52;;
13712;SDS011;6928;50.546;7.120;2022-08-04T14:35:27;1.85;;;1.05;;
13712;SDS011;6928;50.546;7.120;2022-08-04T14:37:57;1.23;;;0.88;;
13712;SDS011;6928;50.546;7.120;2022-08-04T14:40:28;4.03;;;1.10;;
13712;SDS011;6928;50.546;7.120;2022-08-04T14:42:57;6.57;;;1.33;;
13712;SDS011;6928;50.546;7.120;2022-08-04T14:45:28;5.20;;;1.10;;
13712;SDS011;6928;50.546;7.120;2022-08-04T14:47:57;3.30;;;0.90;;
13712;SDS011;6928;50.546;7.120;2022-08-04T14:50:32;3.03;;;1.02;;
13712;SDS011;6928;50.546;7.120;2022-08-04T14:53:05;0.90;;;0.80;;
13712;SDS011;6928;50.546;7.120;2022-08-04T14:55:35;1.30;;;1.00;;
13712;SDS011;6928;50.546;7.120;2022-08-04T14:58:03;4.25;;;1.00;;
13712;SDS011;6928;50.546;7.120;2022-08-04T15:00:31;5.95;;;2.55;;
13712;SDS011;6928;50.546;7.120;2022-08-04T15:03:01;2.83;;;1.08;;
13712;SDS011;6928;50.546;7.120;2022-08-04T15:05:31;1.20;;;1.00;;
13712;SDS011;6928;50.546;7.120;2022-08-04T15:07:58;5.68;;;1.00;;
13712;SDS011;6928;50.546;7.120;2022-08-04T15:10:27;1.85;;;1.08;;
13712;SDS011;6928;50.546;7.120;2022-08-04T15:12:54;1.20;;;1.10;;
13712;SDS011;6928;50.546;7.120;2022-08-04T15:15:22;1.77;;;1.10;;
13712;SDS011;6928;50.546;7.120;2022-08-04T15:17:49;0.73;;;0.73;;
13712;SDS011;6928;50.546;7.120;2022-08-04T15:20:17;1.80;;;0.80;;
13712;SDS011;6928;50.546;7.120;2022-08-04T15:22:45;9.50;;;1.02;;
13712;SDS011;6928;50.546;7.120;2022-08-04T15:25:12;1.00;;;0.90;;
13712;SDS011;6928;50.546;7.120;2022-08-04T15:27:41;2.88;;;1.13;;
13712;SDS011;6928;50.546;7.120;2022-08-04T15:30:09;1.65;;;1.05;;
13712;SDS011;6928;50.546;7.120;2022-08-04T15:32:40;3.38;;;1.00;;
13712;SDS011;6928;50.546;7.120;2022-08-04T15:35:16;5.57;;;1.10;;
13712;SDS011;6928;50.546;7.120;2022-08-04T15:37:51;2.75;;;0.90;;
13712;SDS011;6928;50.546;7.120;2022-08-04T15:40:28;2.50;;;1.10;;
13712;SDS011;6928;50.546;7.120;2022-08-04T15:43:06;4.65;;;1.25;;
13712;SDS011;6928;50.546;7.120;2022-08-04T15:45:47;2.17;;;0.90;;
13712;SDS011;6928;50.546;7.120;2022-08-04T15:50:58;1.15;;;0.98;;
13712;SDS011;6928;50.546;7.120;2022-08-04T15:54:18;2.85;;;0.85;;
13712;SDS011;6928;50.546;7.120;2022-08-04T15:56:47;1.10;;;0.85;;
13712;SDS011;6928;50.546;7.120;2022-08-04T15:59:17;5.38;;;1.48;;
13712;SDS011;6928;50.546;7.120;2022-08-04T16:02:37;3.55;;;1.20;;
13712;SDS011;6928;50.546;7.120;2022-08-04T16:08:00;3.95;;;1.17;;
13712;SDS011;6928;50.546;7.120;2022-08-04T16:10:36;4.28;;;1.05;;
13712;SDS011;6928;50.546;7.120;2022-08-04T16:13:05;2.67;;;1.20;;
13712;SDS011;6928;50.546;7.120;2022-08-04T16:15:39;3.10;;;1.10;;
13712;SDS011;6928;50.546;7.120;2022-08-04T16:18:08;4.30;;;1.77;;
13712;SDS011;6928;50.546;7.120;2022-08-04T16:20:37;3.50;;;1.88;;
13712;SDS011;6928;50.546;7.120;2022-08-04T16:23:14;4.35;;;1.15;;
13712;SDS011;6928;50.546;7.120;2022-08-04T16:25:52;7.47;;;2.38;;
13712;SDS011;6928;50.546;7.120;2022-08-04T16:28:35;6.93;;;1.10;;
13712;SDS011;6928;50.546;7.120;2022-08-04T16:31:06;3.58;;;1.20;;
13712;SDS011;6928;50.546;7.120;2022-08-04T16:33:35;4.20;;;1.38;;
13712;SDS011;6928;50.546;7.120;2022-08-04T16:36:05;1.15;;;1.02;;
13712;SDS011;6928;50.546;7.120;2022-08-04T16:41:37;3.33;;;1.65;;
13712;SDS011;6928;50.546;7.120;2022-08-04T16:47:04;4.10;;;1.42;;
13712;SDS011;6928;50.546;7.120;2022-08-04T16:49:32;4.18;;;1.40;;
13712;SDS011;6928;50.546;7.120;2022-08-04T16:52:00;10.98;;;1.58;;